sensor_id;sensor_type;location;lat;lon;timestamp;P1;durP1;ratioP1;P2;durP2;ratioP2
29196;SDS011;62796;42.654;23.316;2023-11-18T00:02:18;0.80;;;0.80;;
29196;SDS011;62796;42.654;23.316;2023-11-18T00:04:44;0.80;;;0.80;;
29196;SDS011;62796;42.654;23.316;2023-11-18T00:07:09;1.25;;;0.73;;
29196;SDS011;62796;42.654;23.316;2023-11-18T00:09:35;1.35;;;0.65;;
29196;SDS011;62796;42.654;23.316;2023-11-18T00:12:01;1.13;;;0.88;;
29196;SDS011;62796;42.654;23.316;2023-11-18T00:14:29;1.35;;;0.70;;
29196;SDS011;62796;42.654;23.316;2023-11-18T00:16:54;1.40;;;0.80;;
29196;SDS011;62796;42.654;23.316;2023-11-18T00:19:19;0.57;;;0.57;;
29196;SDS011;62796;42.654;23.316;2023-11-18T00:21:45;0.52;;;0.40;;
29196;SDS011;62796;42.654;23.316;2023-11-18T00:24:10;0.60;;;0.60;;
29196;SDS011;62796;42.654;23.316;2023-11-18T00:26:35;1.65;;;0.70;;
29196;SDS011;62796;42.654;23.316;2023-11-18T00:29:01;0.45;;;0.45;;
29196;SDS011;62796;42.654;23.316;2023-11-18T00:31:26;0.57;;;0.50;;
29196;SDS011;62796;42.654;23.316;2023-11-18T00:33:52;0.68;;;0.60;;
29196;SDS011;62796;42.654;23.316;2023-11-18T00:36:17;0.60;;;0.60;;
29196;SDS011;62796;42.654;23.316;2023-11-18T00:38:43;0.50;;;0.50;;
29196;SDS011;62796;42.654;23.316;2023-11-18T00:41:08;1.02;;;0.57;;
29196;SDS011;62796;42.654;23.316;2023-11-18T00:43:34;0.77;;;0.68;;
29196;SDS011;62796;42.654;23.316;2023-11-18T00:45:59;2.47;;;0.90;;
29196;SDS011;62796;42.654;23.316;2023-11-18T00:48:26;1.65;;;0.93;;
29196;SDS011;62796;42.654;23.316;2023-11-18T00:50:51;1.20;;;0.90;;
29196;SDS011;62796;42.654;23.316;2023-11-18T00:53:17;0.82;;;0.80;;
29196;SDS011;62796;42.654;23.316;2023-11-18T00:55:42;1.42;;;1.10;;
29196;SDS011;62796;42.654;23.316;2023-11-18T00:58:08;0.80;;;0.80;;
29196;SDS011;62796;42.654;23.316;2023-11-18T01:00:33;1.15;;;1.05;;
29196;SDS011;62796;42.654;23.316;2023-11-18T01:02:59;1.10;;;0.90;;
29196;SDS011;62796;42.654;23.316;2023-11-18T01:05:24;0.98;;;0.90;;
29196;SDS011;62796;42.654;23.316;2023-11-18T01:07:50;1.30;;;1.10;;
29196;SDS011;62796;42.654;23.316;2023-11-18T01:10:15;4.05;;;2.40;;
29196;SDS011;62796;42.654;23.316;2023-11-18T01:12:41;2.38;;;1.30;;
29196;SDS011;62796;42.654;23.316;2023-11-18T01:15:10;3.20;;;1.10;;
29196;SDS011;62796;42.654;23.316;2023-11-18T01:17:35;1.00;;;1.00;;
29196;SDS011;62796;42.654;23.316;2023-11-18T01:20:01;1.52;;;1.20;;
29196;SDS011;62796;42.654;23.316;2023-11-18T01:22:33;1.10;;;1.05;;
29196;SDS011;62796;42.654;23.316;2023-11-18T01:24:59;1.50;;;1.40;;
29196;SDS011;62796;42.654;23.316;2023-11-18T01:27:25;1.50;;;1.30;;
29196;SDS011;62796;42.654;23.316;2023-11-18T01:29:50;1.40;;;1.30;;
29196;SDS011;62796;42.654;23.316;2023-11-18T01:32:15;1.58;;;1.38;;
29196;SDS011;62796;42.654;23.316;2023-11-18T01:34:42;1.45;;;1.35;;
29196;SDS011;62796;42.654;23.316;2023-11-18T01:37:09;1.35;;;1.25;;
29196;SDS011;62796;42.654;23.316;2023-11-18T01:39:35;1.60;;;1.50;;
29196;SDS011;62796;42.654;23.316;2023-11-18T01:42:02;1.50;;;1.40;;
29196;SDS011;62796;42.654;23.316;2023-11-18T01:44:28;1.70;;;1.60;;
29196;SDS011;62796;42.654;23.316;2023-11-18T01:46:57;1.73;;;1.50;;
29196;SDS011;62796;42.654;23.316;2023-11-18T01:49:23;1.67;;;1.58;;
29196;SDS011;62796;42.654;23.316;2023-11-18T01:51:52;1.77;;;1.60;;
29196;SDS011;62796;42.654;23.316;2023-11-18T01:54:19;1.80;;;1.70;;
29196;SDS011;62796;42.654;23.316;2023-11-18T01:56:47;3.05;;;1.75;;
29196;SDS011;62796;42.654;23.316;2023-11-18T01:59:13;2.55;;;1.50;;
29196;SDS011;62796;42.654;23.316;2023-11-18T02:01:45;1.40;;;1.30;;
29196;SDS011;62796;42.654;23.316;2023-11-18T02:04:13;2.20;;;1.40;;
29196;SDS011;62796;42.654;23.316;2023-11-18T02:06:40;1.77;;;1.45;;
29196;SDS011;62796;42.654;23.316;2023-11-18T02:09:06;1.58;;;1.48;;
29196;SDS011;62796;42.654;23.316;2023-11-18T02:11:39;1.75;;;1.60;;
29196;SDS011;62796;42.654;23.316;2023-11-18T02:14:13;1.98;;;1.77;;
29196;SDS011;62796;42.654;23.316;2023-11-18T02:16:41;2.13;;;1.95;;
29196;SDS011;62796;42.654;23.316;2023-11-18T02:19:09;1.65;;;1.55;;
29196;SDS011;62796;42.654;23.316;2023-11-18T02:21:45;2.10;;;1.77;;
29196;SDS011;62796;42.654;23.316;2023-11-18T02:24:24;1.92;;;1.60;;
29196;SDS011;62796;42.654;23.316;2023-11-18T02:26:53;2.97;;;1.95;;
29196;SDS011;62796;42.654;23.316;2023-11-18T02:29:21;4.10;;;2.80;;
29196;SDS011;62796;42.654;23.316;2023-11-18T02:31:46;2.35;;;2.03;;
29196;SDS011;62796;42.654;23.316;2023-11-18T02:34:17;2.35;;;2.00;;
29196;SDS011;62796;42.654;23.316;2023-11-18T02:36:48;2.10;;;1.90;;
29196;SDS011;62796;42.654;23.316;2023-11-18T02:39:22;2.35;;;2.15;;
29196;SDS011;62796;42.654;23.316;2023-11-18T02:41:54;2.25;;;2.05;;
29196;SDS011;62796;42.654;23.316;2023-11-18T02:44:24;2.45;;;2.17;;
29196;SDS011;62796;42.654;23.316;2023-11-18T02:46:50;2.22;;;2.03;;
29196;SDS011;62796;42.654;23.316;2023-11-18T02:49:16;2.50;;;2.25;;
29196;SDS011;62796;42.654;23.316;2023-11-18T02:51:42;5.35;;;2.50;;
29196;SDS011;62796;42.654;23.316;2023-11-18T02:54:10;2.40;;;2.20;;
29196;SDS011;62796;42.654;23.316;2023-11-18T02:56:39;3.03;;;2.70;;
29196;SDS011;62796;42.654;23.316;2023-11-18T02:59:04;2.60;;;2.40;;
29196;SDS011;62796;42.654;23.316;2023-11-18T03:01:33;3.03;;;2.70;;
29196;SDS011;62796;42.654;23.316;2023-11-18T03:03:59;2.63;;;2.42;;
29196;SDS011;62796;42.654;23.316;2023-11-18T03:06:27;3.85;;;2.25;;
29196;SDS011;62796;42.654;23.316;2023-11-18T03:08:53;3.78;;;2.60;;
29196;SDS011;62796;42.654;23.316;2023-11-18T03:11:19;3.20;;;2.85;;
29196;SDS011;62796;42.654;23.316;2023-11-18T03:13:45;3.95;;;2.70;;
29196;SDS011;62796;42.654;23.316;2023-11-18T03:16:13;4.00;;;2.80;;
29196;SDS011;62796;42.654;23.316;2023-11-18T03:18:39;3.28;;;2.97;;
29196;SDS011;62796;42.654;23.316;2023-11-18T03:21:12;3.40;;;3.10;;
29196;SDS011;62796;42.654;23.316;2023-11-18T03:23:38;4.13;;;2.70;;
29196;SDS011;62796;42.654;23.316;2023-11-18T03:26:05;3.95;;;3.22;;
29196;SDS011;62796;42.654;23.316;2023-11-18T03:28:31;3.53;;;3.13;;
29196;SDS011;62796;42.654;23.316;2023-11-18T03:30:57;3.15;;;2.88;;
29196;SDS011;62796;42.654;23.316;2023-11-18T03:33:22;3.50;;;2.83;;
29196;SDS011;62796;42.654;23.316;2023-11-18T03:35:48;4.13;;;3.00;;
29196;SDS011;62796;42.654;23.316;2023-11-18T03:38:14;3.10;;;2.90;;
29196;SDS011;62796;42.654;23.316;2023-11-18T03:40:40;3.17;;;2.88;;
29196;SDS011;62796;42.654;23.316;2023-11-18T03:43:06;3.63;;;3.08;;
29196;SDS011;62796;42.654;23.316;2023-11-18T03:45:32;3.80;;;3.08;;
29196;SDS011;62796;42.654;23.316;2023-11-18T03:47:58;3.00;;;2.70;;
29196;SDS011;62796;42.654;23.316;2023-11-18T03:50:25;5.63;;;3.25;;
29196;SDS011;62796;42.654;23.316;2023-11-18T03:52:51;4.65;;;3.20;;
29196;SDS011;62796;42.654;23.316;2023-11-18T03:55:16;4.95;;;3.35;;
29196;SDS011;62796;42.654;23.316;2023-11-18T03:57:43;3.13;;;2.78;;
29196;SDS011;62796;42.654;23.316;2023-11-18T04:00:10;5.85;;;3.45;;
29196;SDS011;62796;42.654;23.316;2023-11-18T04:02:37;5.18;;;3.17;;
29196;SDS011;62796;42.654;23.316;2023-11-18T04:05:05;3.85;;;3.45;;
29196;SDS011;62796;42.654;23.316;2023-11-18T04:07:31;3.72;;;3.17;;
29196;SDS011;62796;42.654;23.316;2023-11-18T04:09:56;3.90;;;3.50;;
29196;SDS011;62796;42.654;23.316;2023-11-18T04:12:21;5.45;;;3.58;;
29196;SDS011;62796;42.654;23.316;2023-11-18T04:14:49;4.07;;;3.70;;
29196;SDS011;62796;42.654;23.316;2023-11-18T04:17:14;4.80;;;4.03;;
29196;SDS011;62796;42.654;23.316;2023-11-18T04:19:39;5.63;;;3.65;;
29196;SDS011;62796;42.654;23.316;2023-11-18T04:22:05;4.18;;;3.70;;
29196;SDS011;62796;42.654;23.316;2023-11-18T04:24:30;4.10;;;3.70;;
29196;SDS011;62796;42.654;23.316;2023-11-18T04:26:56;4.45;;;3.58;;
29196;SDS011;62796;42.654;23.316;2023-11-18T04:29:22;4.20;;;3.80;;
29196;SDS011;62796;42.654;23.316;2023-11-18T04:31:48;4.05;;;3.65;;
29196;SDS011;62796;42.654;23.316;2023-11-18T04:34:13;3.97;;;3.55;;
29196;SDS011;62796;42.654;23.316;2023-11-18T04:36:40;5.25;;;3.63;;
29196;SDS011;62796;42.654;23.316;2023-11-18T04:39:06;3.97;;;3.45;;
29196;SDS011;62796;42.654;23.316;2023-11-18T04:41:32;4.15;;;3.75;;
29196;SDS011;62796;42.654;23.316;2023-11-18T04:43:57;4.05;;;3.65;;
29196;SDS011;62796;42.654;23.316;2023-11-18T04:46:23;4.55;;;3.65;;
29196;SDS011;62796;42.654;23.316;2023-11-18T04:48:49;4.00;;;3.60;;
29196;SDS011;62796;42.654;23.316;2023-11-18T04:51:14;3.65;;;3.20;;
29196;SDS011;62796;42.654;23.316;2023-11-18T04:53:40;3.55;;;3.25;;
29196;SDS011;62796;42.654;23.316;2023-11-18T04:56:05;4.10;;;3.67;;
29196;SDS011;62796;42.654;23.316;2023-11-18T04:58:35;3.92;;;3.53;;
29196;SDS011;62796;42.654;23.316;2023-11-18T05:01:03;3.67;;;3.28;;
29196;SDS011;62796;42.654;23.316;2023-11-18T05:03:29;3.47;;;3.17;;
29196;SDS011;62796;42.654;23.316;2023-11-18T05:05:55;3.25;;;2.95;;
29196;SDS011;62796;42.654;23.316;2023-11-18T05:08:21;3.72;;;3.33;;
29196;SDS011;62796;42.654;23.316;2023-11-18T05:10:47;5.22;;;3.55;;
29196;SDS011;62796;42.654;23.316;2023-11-18T05:13:14;3.80;;;2.97;;
29196;SDS011;62796;42.654;23.316;2023-11-18T05:15:42;4.45;;;2.60;;
29196;SDS011;62796;42.654;23.316;2023-11-18T05:18:10;3.78;;;2.80;;
29196;SDS011;62796;42.654;23.316;2023-11-18T05:20:39;3.03;;;2.75;;
29196;SDS011;62796;42.654;23.316;2023-11-18T05:23:04;3.35;;;2.70;;
29196;SDS011;62796;42.654;23.316;2023-11-18T05:25:29;4.75;;;2.92;;
29196;SDS011;62796;42.654;23.316;2023-11-18T05:27:58;2.35;;;2.15;;
29196;SDS011;62796;42.654;23.316;2023-11-18T05:30:24;5.07;;;2.53;;
29196;SDS011;62796;42.654;23.316;2023-11-18T05:32:50;2.60;;;2.40;;
29196;SDS011;62796;42.654;23.316;2023-11-18T05:35:17;3.55;;;2.50;;
29196;SDS011;62796;42.654;23.316;2023-11-18T05:37:42;2.75;;;2.30;;
29196;SDS011;62796;42.654;23.316;2023-11-18T05:40:09;4.57;;;2.55;;
29196;SDS011;62796;42.654;23.316;2023-11-18T05:42:36;2.67;;;2.45;;
29196;SDS011;62796;42.654;23.316;2023-11-18T05:45:03;3.03;;;2.10;;
29196;SDS011;62796;42.654;23.316;2023-11-18T05:47:29;3.17;;;2.30;;
29196;SDS011;62796;42.654;23.316;2023-11-18T05:49:55;3.33;;;2.20;;
29196;SDS011;62796;42.654;23.316;2023-11-18T05:52:21;3.22;;;2.08;;
29196;SDS011;62796;42.654;23.316;2023-11-18T05:54:47;1.88;;;1.70;;
29196;SDS011;62796;42.654;23.316;2023-11-18T05:57:14;2.53;;;1.67;;
29196;SDS011;62796;42.654;23.316;2023-11-18T05:59:41;2.78;;;1.83;;
29196;SDS011;62796;42.654;23.316;2023-11-18T06:02:07;2.30;;;2.08;;
29196;SDS011;62796;42.654;23.316;2023-11-18T06:04:33;4.38;;;2.13;;
29196;SDS011;62796;42.654;23.316;2023-11-18T06:06:58;1.95;;;1.80;;
29196;SDS011;62796;42.654;23.316;2023-11-18T06:09:24;2.72;;;1.98;;
29196;SDS011;62796;42.654;23.316;2023-11-18T06:11:53;1.95;;;1.75;;
29196;SDS011;62796;42.654;23.316;2023-11-18T06:14:20;2.70;;;1.27;;
29196;SDS011;62796;42.654;23.316;2023-11-18T06:16:46;1.67;;;1.40;;
29196;SDS011;62796;42.654;23.316;2023-11-18T06:19:13;4.78;;;1.63;;
29196;SDS011;62796;42.654;23.316;2023-11-18T06:21:39;3.75;;;1.60;;
29196;SDS011;62796;42.654;23.316;2023-11-18T06:24:05;1.50;;;1.40;;
29196;SDS011;62796;42.654;23.316;2023-11-18T06:26:31;1.85;;;1.42;;
29196;SDS011;62796;42.654;23.316;2023-11-18T06:29:00;3.10;;;2.08;;
29196;SDS011;62796;42.654;23.316;2023-11-18T06:31:26;2.58;;;2.03;;
29196;SDS011;62796;42.654;23.316;2023-11-18T06:33:53;6.40;;;2.80;;
29196;SDS011;62796;42.654;23.316;2023-11-18T06:36:19;6.55;;;3.47;;
29196;SDS011;62796;42.654;23.316;2023-11-18T06:38:46;6.78;;;2.58;;
29196;SDS011;62796;42.654;23.316;2023-11-18T06:41:14;2.70;;;1.70;;
29196;SDS011;62796;42.654;23.316;2023-11-18T06:43:42;2.92;;;1.95;;
29196;SDS011;62796;42.654;23.316;2023-11-18T06:46:21;2.25;;;1.40;;
29196;SDS011;62796;42.654;23.316;2023-11-18T06:48:50;6.53;;;1.90;;
29196;SDS011;62796;42.654;23.316;2023-11-18T06:51:20;3.50;;;2.00;;
29196;SDS011;62796;42.654;23.316;2023-11-18T06:53:55;4.97;;;2.30;;
29196;SDS011;62796;42.654;23.316;2023-11-18T06:56:22;2.47;;;1.38;;
29196;SDS011;62796;42.654;23.316;2023-11-18T06:58:51;1.92;;;1.48;;
29196;SDS011;62796;42.654;23.316;2023-11-18T07:01:17;2.95;;;1.80;;
29196;SDS011;62796;42.654;23.316;2023-11-18T07:03:46;4.22;;;1.90;;
29196;SDS011;62796;42.654;23.316;2023-11-18T07:06:21;2.70;;;1.25;;
29196;SDS011;62796;42.654;23.316;2023-11-18T07:08:51;1.30;;;1.20;;
29196;SDS011;62796;42.654;23.316;2023-11-18T07:11:17;2.95;;;1.33;;
29196;SDS011;62796;42.654;23.316;2023-11-18T07:13:43;3.63;;;1.40;;
29196;SDS011;62796;42.654;23.316;2023-11-18T07:16:09;3.47;;;1.48;;
29196;SDS011;62796;42.654;23.316;2023-11-18T07:18:35;5.60;;;1.98;;
29196;SDS011;62796;42.654;23.316;2023-11-18T07:21:02;2.63;;;1.88;;
29196;SDS011;62796;42.654;23.316;2023-11-18T07:23:30;2.75;;;1.45;;
29196;SDS011;62796;42.654;23.316;2023-11-18T07:25:59;3.95;;;1.67;;
29196;SDS011;62796;42.654;23.316;2023-11-18T07:28:25;7.15;;;2.05;;
29196;SDS011;62796;42.654;23.316;2023-11-18T07:30:51;4.95;;;2.10;;
29196;SDS011;62796;42.654;23.316;2023-11-18T07:33:17;5.22;;;2.33;;
29196;SDS011;62796;42.654;23.316;2023-11-18T07:35:44;3.40;;;1.20;;
29196;SDS011;62796;42.654;23.316;2023-11-18T07:38:11;4.03;;;1.38;;
29196;SDS011;62796;42.654;23.316;2023-11-18T07:40:37;1.52;;;1.20;;
29196;SDS011;62796;42.654;23.316;2023-11-18T07:43:07;1.90;;;1.33;;
29196;SDS011;62796;42.654;23.316;2023-11-18T07:45:37;1.38;;;1.05;;
29196;SDS011;62796;42.654;23.316;2023-11-18T07:48:04;2.22;;;1.35;;
29196;SDS011;62796;42.654;23.316;2023-11-18T07:50:36;4.55;;;1.77;;
29196;SDS011;62796;42.654;23.316;2023-11-18T07:53:02;3.90;;;2.08;;
29196;SDS011;62796;42.654;23.316;2023-11-18T07:55:28;4.57;;;2.10;;
29196;SDS011;62796;42.654;23.316;2023-11-18T07:57:54;4.40;;;2.75;;
29196;SDS011;62796;42.654;23.316;2023-11-18T08:00:19;9.43;;;3.63;;
29196;SDS011;62796;42.654;23.316;2023-11-18T08:02:46;3.47;;;2.38;;
29196;SDS011;62796;42.654;23.316;2023-11-18T08:05:11;4.22;;;2.30;;
29196;SDS011;62796;42.654;23.316;2023-11-18T08:07:40;5.50;;;2.28;;
29196;SDS011;62796;42.654;23.316;2023-11-18T08:10:06;2.78;;;1.40;;
29196;SDS011;62796;42.654;23.316;2023-11-18T08:12:32;3.75;;;2.35;;
29196;SDS011;62796;42.654;23.316;2023-11-18T08:14:58;2.80;;;1.70;;
29196;SDS011;62796;42.654;23.316;2023-11-18T08:17:25;2.80;;;1.73;;
29196;SDS011;62796;42.654;23.316;2023-11-18T08:19:51;3.85;;;1.70;;
29196;SDS011;62796;42.654;23.316;2023-11-18T08:22:18;1.73;;;1.50;;
29196;SDS011;62796;42.654;23.316;2023-11-18T08:24:44;4.30;;;1.23;;
29196;SDS011;62796;42.654;23.316;2023-11-18T08:27:10;2.03;;;1.63;;
29196;SDS011;62796;42.654;23.316;2023-11-18T08:29:36;1.50;;;1.40;;
29196;SDS011;62796;42.654;23.316;2023-11-18T08:32:03;5.10;;;1.80;;
29196;SDS011;62796;42.654;23.316;2023-11-18T08:34:30;2.22;;;1.33;;
29196;SDS011;62796;42.654;23.316;2023-11-18T08:36:58;3.05;;;1.80;;
29196;SDS011;62796;42.654;23.316;2023-11-18T08:39:24;2.25;;;1.70;;
29196;SDS011;62796;42.654;23.316;2023-11-18T08:41:51;3.63;;;1.95;;
29196;SDS011;62796;42.654;23.316;2023-11-18T08:44:16;2.05;;;1.60;;
29196;SDS011;62796;42.654;23.316;2023-11-18T08:46:42;2.63;;;1.55;;
29196;SDS011;62796;42.654;23.316;2023-11-18T08:49:08;3.42;;;1.73;;
29196;SDS011;62796;42.654;23.316;2023-11-18T08:51:39;3.42;;;2.10;;
29196;SDS011;62796;42.654;23.316;2023-11-18T08:54:08;3.00;;;1.40;;
29196;SDS011;62796;42.654;23.316;2023-11-18T08:56:50;3.22;;;1.75;;
29196;SDS011;62796;42.654;23.316;2023-11-18T08:59:17;1.88;;;1.38;;
29196;SDS011;62796;42.654;23.316;2023-11-18T09:01:49;3.13;;;1.60;;
29196;SDS011;62796;42.654;23.316;2023-11-18T09:04:19;5.82;;;2.00;;
29196;SDS011;62796;42.654;23.316;2023-11-18T09:06:45;3.22;;;1.20;;
29196;SDS011;62796;42.654;23.316;2023-11-18T09:09:11;1.40;;;1.30;;
29196;SDS011;62796;42.654;23.316;2023-11-18T09:11:40;3.60;;;1.77;;
29196;SDS011;62796;42.654;23.316;2023-11-18T09:14:07;3.03;;;1.83;;
29196;SDS011;62796;42.654;23.316;2023-11-18T09:16:33;2.38;;;1.38;;
29196;SDS011;62796;42.654;23.316;2023-11-18T09:19:04;2.70;;;1.15;;
29196;SDS011;62796;42.654;23.316;2023-11-18T09:21:31;4.43;;;2.65;;
29196;SDS011;62796;42.654;23.316;2023-11-18T09:24:00;3.05;;;1.33;;
29196;SDS011;62796;42.654;23.316;2023-11-18T09:26:30;2.33;;;1.60;;
29196;SDS011;62796;42.654;23.316;2023-11-18T09:28:56;5.35;;;1.83;;
29196;SDS011;62796;42.654;23.316;2023-11-18T09:31:22;2.20;;;1.60;;
29196;SDS011;62796;42.654;23.316;2023-11-18T09:33:47;3.53;;;2.10;;
29196;SDS011;62796;42.654;23.316;2023-11-18T09:36:17;2.72;;;2.08;;
29196;SDS011;62796;42.654;23.316;2023-11-18T09:38:43;5.50;;;1.73;;
29196;SDS011;62796;42.654;23.316;2023-11-18T09:41:11;1.45;;;1.35;;
29196;SDS011;62796;42.654;23.316;2023-11-18T09:46:27;3.30;;;1.45;;
29196;SDS011;62796;42.654;23.316;2023-11-18T09:49:16;1.52;;;1.38;;
29196;SDS011;62796;42.654;23.316;2023-11-18T09:51:50;3.78;;;1.58;;
29196;SDS011;62796;42.654;23.316;2023-11-18T10:02:23;4.57;;;1.42;;
29196;SDS011;62796;42.654;23.316;2023-11-18T10:04:49;2.17;;;1.30;;
29196;SDS011;62796;42.654;23.316;2023-11-18T10:07:22;4.88;;;2.00;;
29196;SDS011;62796;42.654;23.316;2023-11-18T10:09:52;3.33;;;2.50;;
29196;SDS011;62796;42.654;23.316;2023-11-18T10:12:22;6.43;;;2.53;;
29196;SDS011;62796;42.654;23.316;2023-11-18T10:14:49;2.60;;;1.90;;
29196;SDS011;62796;42.654;23.316;2023-11-18T10:17:17;3.80;;;2.08;;
29196;SDS011;62796;42.654;23.316;2023-11-18T10:19:54;3.65;;;2.03;;
29196;SDS011;62796;42.654;23.316;2023-11-18T10:22:21;1.85;;;1.33;;
29196;SDS011;62796;42.654;23.316;2023-11-18T10:24:48;2.33;;;1.80;;
29196;SDS011;62796;42.654;23.316;2023-11-18T10:27:14;2.95;;;1.77;;
29196;SDS011;62796;42.654;23.316;2023-11-18T10:29:40;4.38;;;2.13;;
29196;SDS011;62796;42.654;23.316;2023-11-18T10:32:06;4.25;;;1.80;;
29196;SDS011;62796;42.654;23.316;2023-11-18T10:34:41;2.70;;;2.05;;
29196;SDS011;62796;42.654;23.316;2023-11-18T10:37:07;2.58;;;1.77;;
29196;SDS011;62796;42.654;23.316;2023-11-18T10:39:35;6.15;;;1.90;;
29196;SDS011;62796;42.654;23.316;2023-11-18T10:42:01;5.90;;;1.80;;
29196;SDS011;62796;42.654;23.316;2023-11-18T10:44:28;1.98;;;1.30;;
29196;SDS011;62796;42.654;23.316;2023-11-18T10:46:54;1.95;;;1.50;;
29196;SDS011;62796;42.654;23.316;2023-11-18T10:49:23;3.67;;;1.52;;
29196;SDS011;62796;42.654;23.316;2023-11-18T10:51:52;4.05;;;1.80;;
29196;SDS011;62796;42.654;23.316;2023-11-18T10:54:19;2.65;;;2.20;;
29196;SDS011;62796;42.654;23.316;2023-11-18T10:56:47;3.95;;;2.00;;
29196;SDS011;62796;42.654;23.316;2023-11-18T10:59:14;4.40;;;1.92;;
29196;SDS011;62796;42.654;23.316;2023-11-18T11:01:43;2.78;;;1.98;;
29196;SDS011;62796;42.654;23.316;2023-11-18T11:04:10;4.63;;;2.65;;
29196;SDS011;62796;42.654;23.316;2023-11-18T11:06:43;3.78;;;2.00;;
29196;SDS011;62796;42.654;23.316;2023-11-18T11:09:17;5.38;;;1.80;;
29196;SDS011;62796;42.654;23.316;2023-11-18T11:11:50;3.92;;;1.80;;
29196;SDS011;62796;42.654;23.316;2023-11-18T11:14:18;3.10;;;1.88;;
29196;SDS011;62796;42.654;23.316;2023-11-18T11:16:54;2.67;;;1.70;;
29196;SDS011;62796;42.654;23.316;2023-11-18T11:20:06;5.72;;;1.90;;
29196;SDS011;62796;42.654;23.316;2023-11-18T11:22:42;5.45;;;1.63;;
29196;SDS011;62796;42.654;23.316;2023-11-18T11:25:35;3.80;;;1.50;;
29196;SDS011;62796;42.654;23.316;2023-11-18T11:31:12;2.75;;;1.95;;
29196;SDS011;62796;42.654;23.316;2023-11-18T11:36:17;6.13;;;2.05;;
29196;SDS011;62796;42.654;23.316;2023-11-18T11:38:52;2.97;;;1.40;;
29196;SDS011;62796;42.654;23.316;2023-11-18T11:41:18;4.20;;;1.90;;
29196;SDS011;62796;42.654;23.316;2023-11-18T11:43:52;3.60;;;2.13;;
29196;SDS011;62796;42.654;23.316;2023-11-18T11:46:27;3.85;;;2.10;;
29196;SDS011;62796;42.654;23.316;2023-11-18T11:48:59;3.78;;;2.15;;
29196;SDS011;62796;42.654;23.316;2023-11-18T11:51:40;4.47;;;1.90;;
29196;SDS011;62796;42.654;23.316;2023-11-18T11:54:16;4.70;;;2.10;;
29196;SDS011;62796;42.654;23.316;2023-11-18T11:56:47;2.97;;;2.28;;
29196;SDS011;62796;42.654;23.316;2023-11-18T12:02:06;3.45;;;2.13;;
29196;SDS011;62796;42.654;23.316;2023-11-18T12:04:35;3.58;;;2.35;;
29196;SDS011;62796;42.654;23.316;2023-11-18T12:07:03;5.15;;;2.28;;
29196;SDS011;62796;42.654;23.316;2023-11-18T12:09:30;3.78;;;2.60;;
29196;SDS011;62796;42.654;23.316;2023-11-18T12:12:02;3.33;;;2.30;;
29196;SDS011;62796;42.654;23.316;2023-11-18T12:14:29;4.75;;;1.80;;
29196;SDS011;62796;42.654;23.316;2023-11-18T12:17:09;6.22;;;1.65;;
29196;SDS011;62796;42.654;23.316;2023-11-18T12:19:38;3.47;;;2.10;;
29196;SDS011;62796;42.654;23.316;2023-11-18T12:25:28;7.68;;;2.90;;
29196;SDS011;62796;42.654;23.316;2023-11-18T12:46:54;6.72;;;1.95;;
29196;SDS011;62796;42.654;23.316;2023-11-18T12:49:43;2.85;;;1.70;;
29196;SDS011;62796;42.654;23.316;2023-11-18T12:52:10;3.67;;;2.50;;
29196;SDS011;62796;42.654;23.316;2023-11-18T12:54:39;4.05;;;1.75;;
29196;SDS011;62796;42.654;23.316;2023-11-18T12:57:08;4.85;;;2.60;;
29196;SDS011;62796;42.654;23.316;2023-11-18T12:59:35;3.08;;;2.10;;
29196;SDS011;62796;42.654;23.316;2023-11-18T13:02:02;2.92;;;2.28;;
29196;SDS011;62796;42.654;23.316;2023-11-18T13:04:32;8.80;;;2.40;;
29196;SDS011;62796;42.654;23.316;2023-11-18T13:06:59;3.05;;;2.38;;
29196;SDS011;62796;42.654;23.316;2023-11-18T13:09:25;5.47;;;2.35;;
29196;SDS011;62796;42.654;23.316;2023-11-18T13:11:57;3.63;;;2.60;;
29196;SDS011;62796;42.654;23.316;2023-11-18T13:14:25;4.60;;;2.83;;
29196;SDS011;62796;42.654;23.316;2023-11-18T13:16:54;5.50;;;2.90;;
29196;SDS011;62796;42.654;23.316;2023-11-18T13:19:24;4.75;;;3.08;;
29196;SDS011;62796;42.654;23.316;2023-11-18T13:21:51;4.72;;;2.53;;
29196;SDS011;62796;42.654;23.316;2023-11-18T13:24:17;2.63;;;2.03;;
29196;SDS011;62796;42.654;23.316;2023-11-18T13:26:42;2.50;;;2.10;;
29196;SDS011;62796;42.654;23.316;2023-11-18T13:29:08;2.70;;;2.50;;
29196;SDS011;62796;42.654;23.316;2023-11-18T13:31:34;3.25;;;2.88;;
29196;SDS011;62796;42.654;23.316;2023-11-18T13:34:00;6.45;;;2.20;;
29196;SDS011;62796;42.654;23.316;2023-11-18T13:36:26;6.38;;;3.40;;
29196;SDS011;62796;42.654;23.316;2023-11-18T13:38:52;6.47;;;3.10;;
29196;SDS011;62796;42.654;23.316;2023-11-18T13:41:30;4.35;;;2.50;;
29196;SDS011;62796;42.654;23.316;2023-11-18T13:43:56;5.20;;;3.25;;
29196;SDS011;62796;42.654;23.316;2023-11-18T13:46:23;3.67;;;2.78;;
29196;SDS011;62796;42.654;23.316;2023-11-18T13:48:50;5.32;;;2.67;;
29196;SDS011;62796;42.654;23.316;2023-11-18T13:51:17;5.28;;;3.00;;
29196;SDS011;62796;42.654;23.316;2023-11-18T13:53:44;3.28;;;2.60;;
29196;SDS011;62796;42.654;23.316;2023-11-18T13:56:11;3.55;;;2.78;;
29196;SDS011;62796;42.654;23.316;2023-11-18T13:58:38;6.97;;;2.90;;
29196;SDS011;62796;42.654;23.316;2023-11-18T14:01:07;6.95;;;3.03;;
29196;SDS011;62796;42.654;23.316;2023-11-18T14:03:35;5.75;;;3.22;;
29196;SDS011;62796;42.654;23.316;2023-11-18T14:06:02;3.67;;;2.60;;
29196;SDS011;62796;42.654;23.316;2023-11-18T14:08:31;5.47;;;3.30;;
29196;SDS011;62796;42.654;23.316;2023-11-18T14:10:59;5.20;;;3.28;;
29196;SDS011;62796;42.654;23.316;2023-11-18T14:13:25;3.95;;;3.30;;
29196;SDS011;62796;42.654;23.316;2023-11-18T14:15:55;3.95;;;3.28;;
29196;SDS011;62796;42.654;23.316;2023-11-18T14:18:22;4.40;;;3.30;;
29196;SDS011;62796;42.654;23.316;2023-11-18T14:20:48;3.50;;;2.97;;
29196;SDS011;62796;42.654;23.316;2023-11-18T14:23:15;5.32;;;3.20;;
29196;SDS011;62796;42.654;23.316;2023-11-18T14:25:40;5.63;;;3.60;;
29196;SDS011;62796;42.654;23.316;2023-11-18T14:28:06;4.55;;;3.20;;
29196;SDS011;62796;42.654;23.316;2023-11-18T14:30:35;6.55;;;3.78;;
29196;SDS011;62796;42.654;23.316;2023-11-18T14:33:00;4.47;;;3.35;;
29196;SDS011;62796;42.654;23.316;2023-11-18T14:35:26;6.82;;;3.53;;
29196;SDS011;62796;42.654;23.316;2023-11-18T14:37:51;5.22;;;3.53;;
29196;SDS011;62796;42.654;23.316;2023-11-18T14:40:17;4.68;;;3.15;;
29196;SDS011;62796;42.654;23.316;2023-11-18T14:42:43;7.70;;;4.03;;
29196;SDS011;62796;42.654;23.316;2023-11-18T14:45:12;5.85;;;4.03;;
29196;SDS011;62796;42.654;23.316;2023-11-18T14:47:39;8.40;;;4.05;;
29196;SDS011;62796;42.654;23.316;2023-11-18T14:50:05;6.35;;;4.05;;
29196;SDS011;62796;42.654;23.316;2023-11-18T14:52:40;6.85;;;4.28;;
29196;SDS011;62796;42.654;23.316;2023-11-18T14:55:10;5.63;;;4.13;;
29196;SDS011;62796;42.654;23.316;2023-11-18T14:57:38;5.38;;;3.65;;
29196;SDS011;62796;42.654;23.316;2023-11-18T15:00:04;8.20;;;3.78;;
29196;SDS011;62796;42.654;23.316;2023-11-18T15:02:47;7.18;;;3.78;;
29196;SDS011;62796;42.654;23.316;2023-11-18T15:05:17;6.40;;;3.90;;
29196;SDS011;62796;42.654;23.316;2023-11-18T15:07:53;4.60;;;3.67;;
29196;SDS011;62796;42.654;23.316;2023-11-18T15:10:23;7.63;;;4.20;;
29196;SDS011;62796;42.654;23.316;2023-11-18T15:12:51;4.68;;;3.80;;
29196;SDS011;62796;42.654;23.316;2023-11-18T15:15:31;5.53;;;4.22;;
29196;SDS011;62796;42.654;23.316;2023-11-18T15:17:57;7.82;;;3.83;;
29196;SDS011;62796;42.654;23.316;2023-11-18T15:20:24;7.15;;;4.05;;